Time;durP1;ratioP1;P1;durP2;ratioP2;P2;SDS_P1;SDS_P2;PMS_P1;PMS_P2;Temp;Humidity;BMP_temperature;BMP_pressure;BME280_temperature;BME280_humidity;BME280_pressure;Samples;Min_cycle;Max_cycle;Signal;HPM_P1;HPM_P2
2022/05/18 00:00:11;;;;;;;1.65;0.90;;;17.40;52.60;19.40;94320.00;;;;10393100;28;45171;-61
2022/05/18 00:05:32;;;;;;;2.38;1.13;;;17.30;52.50;19.40;94323.00;;;;10392352;28;45207;-61
2022/05/18 00:10:54;;;;;;;1.80;0.85;;;17.30;52.50;19.40;94324.00;;;;10397570;28;45257;-59
2022/05/18 00:16:16;;;;;;;1.08;0.80;;;17.30;52.50;19.40;94309.00;;;;10398928;28;45738;-59
2022/05/18 00:21:37;;;;;;;1.10;0.80;;;17.30;52.50;19.30;94326.00;;;;10399823;28;45728;-60
2022/05/18 00:27:03;;;;;;;1.25;0.98;;;17.30;52.50;19.40;94308.00;;;;10399017;28;45186;-60
2022/05/18 00:32:23;;;;;;;1.20;1.00;;;17.30;52.50;19.40;94330.00;;;;10398588;28;45239;-60
2022/05/18 00:37:44;;;;;;;1.63;1.00;;;17.30;52.40;19.40;94329.00;;;;10395504;28;45242;-60
2022/05/18 00:43:06;;;;;;;1.55;1.00;;;17.30;52.50;19.40;94322.00;;;;10396545;28;45292;-61
2022/05/18 00:48:27;;;;;;;1.75;1.23;;;17.30;52.40;19.40;94341.00;;;;10397351;28;45127;-60
2022/05/18 00:53:53;;;;;;;1.00;0.90;;;17.30;52.40;19.40;94318.00;;;;10398859;28;45124;-60
2022/05/18 00:59:21;;;;;;;1.52;1.20;;;17.30;52.40;19.40;94320.00;;;;10396276;28;45321;-59
2022/05/18 01:04:44;;;;;;;1.45;1.02;;;17.30;52.40;19.40;94334.00;;;;10394140;28;45198;-59
2022/05/18 01:10:07;;;;;;;1.38;1.00;;;17.30;52.40;19.40;94330.00;;;;10398493;28;45172;-61
2022/05/18 01:15:29;;;;;;;1.25;0.98;;;17.30;52.40;19.40;94321.00;;;;10396506;28;45190;-61
2022/05/18 01:20:51;;;;;;;1.80;0.95;;;17.30;52.40;19.40;94332.00;;;;10396708;28;45664;-59
2022/05/18 01:26:37;;;;;;;1.30;1.00;;;17.30;52.30;19.40;94325.00;;;;10397565;28;45784;-60
2022/05/18 01:32:02;;;;;;;1.75;1.00;;;17.30;52.30;19.30;94341.00;;;;10397009;28;45244;-60
2022/05/18 01:37:22;;;;;;;1.40;1.00;;;17.30;52.30;19.30;94346.00;;;;10397254;28;45221;-60
2022/05/18 01:42:47;;;;;;;0.93;0.80;;;17.30;52.30;19.30;94336.00;;;;10397373;28;45178;-60
2022/05/18 01:48:11;;;;;;;1.35;1.00;;;17.20;52.30;19.30;94340.00;;;;10395673;28;45163;-59
2022/05/18 01:53:34;;;;;;;1.00;0.90;;;17.30;52.30;19.30;94355.00;;;;10397055;28;45692;-60
2022/05/18 01:58:55;;;;;;;1.20;0.93;;;17.30;52.30;19.30;94353.00;;;;10395779;28;45252;-59
2022/05/18 02:04:17;;;;;;;1.60;1.00;;;17.20;52.20;19.30;94343.00;;;;10396593;28;45283;-60
2022/05/18 02:09:38;;;;;;;1.25;0.90;;;17.20;52.20;19.30;94348.00;;;;10394646;28;45704;-61
2022/05/18 02:14:59;;;;;;;0.80;0.80;;;17.20;52.20;19.30;94348.00;;;;10396273;28;45697;-61
2022/05/18 02:20:21;;;;;;;1.75;0.90;;;17.20;52.20;19.30;94352.00;;;;10395282;28;45380;-62
2022/05/18 02:25:42;;;;;;;1.83;0.90;;;17.20;52.20;19.30;94360.00;;;;10395426;28;45672;-61
2022/05/18 02:31:03;;;;;;;1.13;0.80;;;17.20;52.10;19.30;94362.00;;;;10394475;28;45255;-60
2022/05/18 02:36:26;;;;;;;0.70;0.65;;;17.20;52.10;19.30;94353.00;;;;10394156;28;45156;-61
2022/05/18 02:41:48;;;;;;;1.33;0.80;;;17.20;52.10;19.30;94353.00;;;;10395097;28;45818;-59
2022/05/18 02:47:09;;;;;;;1.48;0.93;;;17.20;52.00;19.30;94369.00;;;;10395133;28;45256;-60
2022/05/18 02:52:31;;;;;;;1.30;0.90;;;17.20;52.10;19.30;94366.00;;;;10395483;28;45172;-60
2022/05/18 02:57:52;;;;;;;0.95;0.75;;;17.20;52.10;19.30;94362.00;;;;10393663;28;45649;-59
2022/05/18 03:03:12;;;;;;;1.30;0.90;;;17.20;52.00;19.30;94377.00;;;;10393578;28;45380;-58
2022/05/18 03:08:37;;;;;;;1.35;0.90;;;17.20;52.00;19.30;94380.00;;;;10393217;28;45161;-60
2022/05/18 03:13:59;;;;;;;1.17;0.70;;;17.20;52.10;19.30;94377.00;;;;10395543;28;46580;-60
2022/05/18 03:19:20;;;;;;;1.42;0.70;;;17.20;52.00;19.30;94377.00;;;;10393587;28;45250;-60
2022/05/18 03:24:42;;;;;;;0.80;0.80;;;17.20;52.00;19.30;94377.00;;;;10393709;28;45182;-60
2022/05/18 03:30:02;;;;;;;1.00;0.80;;;17.20;52.10;19.30;94382.00;;;;10392893;28;45255;-61
2022/05/18 03:35:23;;;;;;;1.92;0.85;;;17.20;52.00;19.30;94372.00;;;;10394179;28;45715;-60
2022/05/18 03:40:45;;;;;;;0.95;0.85;;;17.20;51.90;19.30;94386.00;;;;10391896;28;45743;-60
2022/05/18 03:46:07;;;;;;;1.00;0.70;;;17.20;51.90;19.30;94398.00;;;;10391714;28;45226;-60
2022/05/18 03:51:28;;;;;;;1.13;0.90;;;17.20;51.90;19.20;94387.00;;;;10393317;28;45688;-61
2022/05/18 03:56:50;;;;;;;1.23;0.80;;;17.20;52.00;19.20;94388.00;;;;10392213;28;45752;-59
2022/05/18 04:02:10;;;;;;;1.23;0.95;;;17.10;52.00;19.20;94386.00;;;;10392632;28;45127;-61
2022/05/18 04:07:31;;;;;;;0.90;0.70;;;17.20;51.90;19.20;94399.00;;;;10391764;28;45139;-59
2022/05/18 04:12:53;;;;;;;0.70;0.60;;;17.20;52.00;19.20;94389.00;;;;10392350;28;45794;-60
2022/05/18 04:18:13;;;;;;;1.02;0.90;;;17.20;52.00;19.20;94393.00;;;;10392811;28;45306;-60
2022/05/18 04:23:38;;;;;;;1.23;0.88;;;17.20;52.00;19.20;94395.00;;;;10391745;28;45499;-60
2022/05/18 04:28:59;;;;;;;0.75;0.70;;;17.20;52.00;19.20;94408.00;;;;10390709;28;45238;-60
2022/05/18 04:34:21;;;;;;;0.73;0.70;;;17.20;52.00;19.20;94403.00;;;;10391791;28;45188;-60
2022/05/18 04:39:42;;;;;;;0.95;0.70;;;17.20;52.00;19.20;94416.00;;;;10391401;28;45224;-61
2022/05/18 04:45:06;;;;;;;1.55;0.80;;;17.20;52.00;19.20;94422.00;;;;10391869;28;45952;-60
2022/05/18 04:50:27;;;;;;;1.48;0.90;;;17.20;52.00;19.20;94433.00;;;;10391746;28;45490;-60
2022/05/18 04:55:49;;;;;;;1.55;0.80;;;17.20;51.90;19.20;94418.00;;;;10394173;28;45879;-60
2022/05/18 05:01:11;;;;;;;1.00;0.90;;;17.20;51.90;19.20;94440.00;;;;10398297;28;45232;-61
2022/05/18 05:06:32;;;;;;;1.00;0.75;;;17.20;52.00;19.20;94451.00;;;;10397637;28;45086;-61
2022/05/18 05:11:54;;;;;;;1.80;0.90;;;17.20;52.00;19.10;94458.00;;;;10398312;28;45209;-61
2022/05/18 05:17:16;;;;;;;1.40;0.90;;;17.10;52.00;19.20;94455.00;;;;10397827;28;45275;-59
2022/05/18 05:22:37;;;;;;;1.45;0.88;;;17.20;52.00;19.20;94458.00;;;;10396528;28;45867;-61
2022/05/18 05:27:57;;;;;;;0.90;0.70;;;17.10;52.00;19.20;94462.00;;;;10397807;28;45764;-60
2022/05/18 05:33:19;;;;;;;0.80;0.80;;;17.10;52.00;19.20;94477.00;;;;10396706;28;45235;-62
2022/05/18 05:38:40;;;;;;;1.13;0.80;;;17.10;52.00;19.20;94473.00;;;;10396522;28;45203;-60
2022/05/18 05:44:00;;;;;;;1.10;0.80;;;17.10;52.00;19.20;94476.00;;;;10397311;28;45259;-60
2022/05/18 05:49:22;;;;;;;1.73;1.00;;;17.10;52.00;19.20;94468.00;;;;10397967;28;45849;-60
2022/05/18 05:54:43;;;;;;;1.25;0.90;;;17.10;52.00;19.20;94453.00;;;;10397973;28;45107;-60
2022/05/18 06:00:07;;;;;;;1.73;0.80;;;17.20;51.90;19.20;94463.00;;;;10398225;28;45185;-59
2022/05/18 06:05:29;;;;;;;1.02;0.70;;;17.20;52.00;19.20;94471.00;;;;10394211;28;45438;-60
2022/05/18 06:10:49;;;;;;;0.70;0.70;;;17.10;51.90;19.20;94460.00;;;;10355463;28;45919;-60
2022/05/18 06:16:10;;;;;;;1.25;0.80;;;17.20;51.90;19.20;94477.00;;;;10366094;28;45192;-60
2022/05/18 06:21:32;;;;;;;0.95;0.63;;;17.10;51.80;19.20;94476.00;;;;10354259;28;45513;-60
2022/05/18 06:26:57;;;;;;;1.00;0.75;;;17.10;51.80;19.20;94483.00;;;;10364465;28;45481;-60
2022/05/18 06:32:19;;;;;;;1.08;0.70;;;17.20;51.80;19.20;94489.00;;;;10367963;28;45763;-60
2022/05/18 06:37:41;;;;;;;1.60;0.85;;;17.20;51.70;19.20;94492.00;;;;10395815;28;45673;-60
2022/05/18 06:43:01;;;;;;;1.48;0.70;;;17.10;51.70;19.20;94484.00;;;;10395984;28;45211;-61
2022/05/18 06:48:22;;;;;;;1.23;0.70;;;17.20;51.70;19.20;94493.00;;;;10394924;28;45161;-61
2022/05/18 06:53:44;;;;;;;1.08;0.90;;;17.20;51.70;19.20;94494.00;;;;10390454;28;45145;-60
2022/05/18 06:59:05;;;;;;;4.53;0.80;;;17.20;51.70;19.20;94492.00;;;;10374321;28;45563;-61
2022/05/18 07:04:26;;;;;;;2.45;0.90;;;17.20;51.70;19.20;94493.00;;;;10375370;28;45368;-61
2022/05/18 07:09:48;;;;;;;1.13;0.70;;;17.20;51.90;19.20;94481.00;;;;10374903;28;45299;-61
2022/05/18 07:15:10;;;;;;;2.47;0.90;;;17.20;51.80;19.20;94471.00;;;;10371920;28;46142;-61
2022/05/18 07:20:31;;;;;;;2.28;0.80;;;17.20;51.80;19.20;94478.00;;;;10385458;28;45300;-60
2022/05/18 07:25:54;;;;;;;1.63;0.90;;;17.20;51.80;19.20;94483.00;;;;10369305;28;45172;-61
2022/05/18 07:31:16;;;;;;;4.53;1.42;;;17.20;51.80;19.20;94482.00;;;;10401292;28;46056;-60
2022/05/18 07:36:37;;;;;;;1.10;0.90;;;17.20;51.70;19.30;94478.00;;;;10429950;28;45187;-60
2022/05/18 07:42:00;;;;;;;1.20;0.98;;;17.20;51.60;19.30;94479.00;;;;10395324;28;45795;-60
2022/05/18 07:47:28;;;;;;;1.80;0.95;;;17.20;51.60;19.20;94473.00;;;;10431676;28;45106;-60
2022/05/18 07:52:49;;;;;;;2.10;0.90;;;17.20;51.60;19.20;94482.00;;;;10423906;28;45207;-61
2022/05/18 07:58:15;;;;;;;3.25;1.27;;;17.20;52.20;19.10;94479.00;;;;10415213;28;45791;-61
2022/05/18 08:03:37;;;;;;;1.45;0.90;;;17.20;51.50;19.20;94502.00;;;;10406186;28;45220;-61
2022/05/18 08:08:57;;;;;;;1.83;0.82;;;17.20;51.50;19.20;94494.00;;;;10352593;28;45224;-60
2022/05/18 08:19:58;;;;;;;1.42;0.82;;;17.20;51.40;19.20;94498.00;;;;10391567;28;45757;-60
2022/05/18 08:25:19;;;;;;;1.52;0.90;;;17.20;51.40;19.20;94492.00;;;;10391628;28;45943;-61
2022/05/18 08:30:42;;;;;;;1.88;0.85;;;17.20;51.40;19.20;94486.00;;;;10396520;28;45225;-60
2022/05/18 08:36:06;;;;;;;1.40;0.85;;;17.20;51.30;19.20;94489.00;;;;10400212;28;45211;-61
2022/05/18 08:41:31;;;;;;;2.05;0.90;;;17.20;51.30;19.20;94494.00;;;;10400141;28;45769;-61
2022/05/18 08:47:08;;;;;;;2.35;1.00;;;17.20;51.30;19.20;94480.00;;;;10399532;28;45870;-60
2022/05/18 08:52:51;;;;;;;1.73;0.95;;;17.20;51.30;19.20;94494.00;;;;10397563;28;45242;-60
2022/05/18 08:58:20;;;;;;;2.55;1.00;;;17.20;51.30;19.20;94479.00;;;;10399128;28;45766;-61
2022/05/18 09:03:46;;;;;;;2.17;0.90;;;17.20;51.30;19.20;94486.00;;;;10403405;28;45256;-60
2022/05/18 09:14:50;;;;;;;1.35;1.05;;;17.20;51.20;19.20;94499.00;;;;10440942;28;45762;-60
2022/05/18 09:20:21;;;;;;;0.98;0.88;;;17.20;51.30;19.30;94489.00;;;;10417002;28;45900;-62
2022/05/18 09:25:58;;;;;;;2.90;1.00;;;17.20;51.20;19.20;94493.00;;;;10399069;28;45871;-62
2022/05/18 09:31:37;;;;;;;1.67;1.07;;;17.20;51.30;19.20;94484.00;;;;10399063;28;45117;-62
2022/05/18 09:37:23;;;;;;;2.78;1.00;;;17.20;51.40;19.20;94486.00;;;;10398215;28;45206;-62
2022/05/18 09:42:50;;;;;;;3.10;1.00;;;17.20;51.30;19.20;94491.00;;;;10386628;28;45228;-62
2022/05/18 09:48:15;;;;;;;2.47;1.10;;;17.20;51.30;19.30;94494.00;;;;10397732;28;45700;-62
2022/05/18 09:53:38;;;;;;;1.52;1.00;;;17.20;51.30;19.20;94492.00;;;;10398045;28;45874;-61
2022/05/18 09:59:07;;;;;;;2.60;0.95;;;17.20;51.30;19.20;94475.00;;;;10397726;28;45303;-62
2022/05/18 10:10:14;;;;;;;1.08;0.90;;;17.20;51.30;19.20;94474.00;;;;10397196;28;45771;-62
2022/05/18 10:15:40;;;;;;;1.95;0.98;;;17.20;51.30;19.20;94465.00;;;;10396862;28;45267;-62
2022/05/18 10:21:07;;;;;;;2.72;1.10;;;17.20;51.20;19.20;94467.00;;;;10397281;28;45143;-62
2022/05/18 10:26:33;;;;;;;3.10;0.90;;;17.20;51.30;19.20;94459.00;;;;10397142;28;45187;-63
2022/05/18 10:32:04;;;;;;;2.08;1.00;;;17.20;51.20;19.20;94446.00;;;;10396903;28;45143;-63
2022/05/18 10:37:28;;;;;;;1.77;0.98;;;17.20;51.20;19.20;94462.00;;;;10396566;28;45515;-62
2022/05/18 10:42:53;;;;;;;2.00;1.00;;;17.20;51.20;19.20;94446.00;;;;10397105;28;45886;-62
2022/05/18 10:48:18;;;;;;;2.15;0.90;;;17.20;51.20;19.20;94447.00;;;;10396682;28;45359;-62
2022/05/18 10:53:42;;;;;;;1.80;0.90;;;17.20;51.30;19.20;94441.00;;;;10396765;28;45147;-62
2022/05/18 10:59:32;;;;;;;1.65;0.82;;;17.20;51.30;19.20;94425.00;;;;10396481;28;45689;-62
2022/05/18 11:05:00;;;;;;;3.05;1.10;;;17.20;51.20;19.20;94408.00;;;;10396794;28;45112;-62
2022/05/18 11:10:20;;;;;;;3.10;1.13;;;17.20;51.30;19.20;94419.00;;;;10396193;28;45418;-62
2022/05/18 11:15:49;;;;;;;2.20;0.95;;;17.20;51.90;19.20;94420.00;;;;10394604;28;45235;-63
2022/05/18 11:21:20;;;;;;;2.10;0.93;;;17.20;51.20;19.20;94404.00;;;;10395802;28;45824;-63
2022/05/18 11:26:52;;;;;;;1.50;0.90;;;17.20;51.20;19.30;94411.00;;;;10394468;28;45134;-62
2022/05/18 11:32:31;;;;;;;2.13;1.25;;;17.20;51.20;19.30;94398.00;;;;10393083;28;45701;-63
2022/05/18 11:38:19;;;;;;;2.50;0.95;;;17.20;51.40;19.30;94388.00;;;;10394762;28;45052;-63
2022/05/18 11:43:54;;;;;;;2.05;0.93;;;17.20;51.30;19.30;94401.00;;;;10395622;28;45284;-63
2022/05/18 11:49:21;;;;;;;2.25;1.00;;;17.20;51.30;19.30;94396.00;;;;10394740;28;45227;-63
2022/05/18 11:55:04;;;;;;;1.60;1.20;;;17.20;51.20;19.30;94401.00;;;;10396020;28;45379;-64
2022/05/18 12:00:46;;;;;;;2.75;1.23;;;17.30;51.20;19.30;94383.00;;;;10395175;28;45752;-63
2022/05/18 12:06:27;;;;;;;2.65;1.23;;;17.30;51.30;19.30;94391.00;;;;10398891;28;45782;-63
2022/05/18 12:12:00;;;;;;;1.95;0.90;;;17.30;51.20;19.40;94391.00;;;;10402464;28;45871;-63
2022/05/18 12:17:25;;;;;;;3.03;1.13;;;17.30;51.10;19.30;94381.00;;;;10401095;28;45234;-63
2022/05/18 12:22:52;;;;;;;4.70;1.30;;;17.30;51.10;19.40;94376.00;;;;10401877;28;45235;-64
2022/05/18 12:28:14;;;;;;;2.85;1.40;;;17.30;51.10;19.40;94364.00;;;;10401411;28;45156;-63
2022/05/18 12:33:44;;;;;;;1.77;1.00;;;17.30;51.00;19.40;94377.00;;;;10402024;28;45333;-63
2022/05/18 12:39:15;;;;;;;3.33;1.25;;;17.40;51.00;19.40;94376.00;;;;10392833;28;45350;-64
2022/05/18 12:44:41;;;;;;;3.13;1.20;;;17.40;50.90;19.40;94365.00;;;;10407545;28;45175;-63
2022/05/18 12:50:09;;;;;;;1.58;0.98;;;17.40;50.90;19.40;94361.00;;;;10400349;28;45680;-63
2022/05/18 12:55:44;;;;;;;2.03;1.15;;;17.40;50.80;19.50;94370.00;;;;10400222;28;45323;-64
2022/05/18 13:01:12;;;;;;;3.20;1.20;;;17.40;50.70;19.50;94377.00;;;;10400829;28;45176;-63
2022/05/18 13:06:45;;;;;;;1.60;0.93;;;17.40;50.80;19.50;94354.00;;;;10408520;28;45691;-63
2022/05/18 13:12:38;;;;;;;2.35;1.20;;;17.50;50.70;19.50;94355.00;;;;10410293;28;45271;-63
2022/05/18 13:18:03;;;;;;;2.25;1.00;;;17.50;50.90;19.50;94355.00;;;;10394126;28;45179;-63
2022/05/18 13:23:53;;;;;;;1.95;1.10;;;17.50;50.60;19.60;94357.00;;;;10441726;28;45065;-63
2022/05/18 13:29:21;;;;;;;2.95;1.13;;;17.50;50.70;19.60;94346.00;;;;10440802;28;45071;-63
2022/05/18 13:34:49;;;;;;;1.85;1.02;;;17.50;50.90;19.60;94339.00;;;;10424598;28;45878;-62
2022/05/18 13:40:10;;;;;;;1.65;0.93;;;17.60;50.90;19.60;94332.00;;;;10398924;28;45904;-62
2022/05/18 13:45:34;;;;;;;1.77;0.90;;;17.60;50.90;19.60;94347.00;;;;10398533;28;45240;-63
2022/05/18 13:50:58;;;;;;;1.85;1.00;;;17.60;50.80;19.70;94342.00;;;;10398371;28;45813;-63
2022/05/18 13:56:23;;;;;;;1.35;0.98;;;17.60;50.80;19.70;94328.00;;;;10404492;28;45255;-63
2022/05/18 14:01:48;;;;;;;1.48;0.82;;;17.70;50.70;19.70;94321.00;;;;10440471;28;45296;-63
2022/05/18 14:07:10;;;;;;;3.42;1.05;;;17.60;50.60;19.70;94330.00;;;;10386680;28;45184;-62
2022/05/18 14:12:30;;;;;;;3.03;0.90;;;17.70;50.80;19.70;94312.00;;;;10414375;28;45552;-62
2022/05/18 14:17:56;;;;;;;2.05;1.15;;;17.70;50.70;19.80;94293.00;;;;10397354;28;45178;-62
2022/05/18 14:23:24;;;;;;;2.65;1.00;;;17.70;50.70;19.80;94314.00;;;;10397311;28;45180;-62
2022/05/18 14:28:48;;;;;;;2.25;1.13;;;17.70;50.60;19.80;94302.00;;;;10428525;28;45931;-63
2022/05/18 14:34:12;;;;;;;2.08;1.00;;;17.80;50.50;19.80;94307.00;;;;10438914;28;45866;-62
2022/05/18 14:39:39;;;;;;;2.13;0.93;;;17.80;50.50;19.80;94302.00;;;;10438083;28;45092;-62
2022/05/18 14:45:05;;;;;;;1.67;1.10;;;17.80;50.50;19.80;94294.00;;;;10438825;28;45161;-62
2022/05/18 14:50:31;;;;;;;1.80;0.90;;;17.80;50.40;19.90;94278.00;;;;10437617;28;45217;-63
2022/05/18 14:56:04;;;;;;;3.25;1.00;;;17.90;50.40;19.90;94278.00;;;;10438059;28;45252;-62
2022/05/18 15:01:34;;;;;;;1.77;0.80;;;17.90;50.40;19.90;94281.00;;;;10438155;28;45731;-63
2022/05/18 15:07:01;;;;;;;1.45;0.93;;;17.90;50.30;20.00;94277.00;;;;10437465;28;45180;-63
2022/05/18 15:12:30;;;;;;;1.53;0.80;;;17.90;50.20;20.00;94266.00;;;;10437788;28;45346;-62
2022/05/18 15:17:57;;;;;;;1.40;0.80;;;17.90;50.10;20.00;94268.00;;;;10437188;28;45121;-62
2022/05/18 15:23:30;;;;;;;1.92;1.02;;;18.00;50.10;20.00;94267.00;;;;10437707;28;45295;-62
2022/05/18 15:28:58;;;;;;;1.25;0.80;;;18.00;50.10;20.10;94269.00;;;;10436834;28;45220;-62
2022/05/18 15:34:25;;;;;;;1.20;0.80;;;18.00;50.10;20.10;94261.00;;;;10437168;28;45384;-62
2022/05/18 15:39:48;;;;;;;1.20;0.80;;;18.10;50.00;20.10;94248.00;;;;10435553;28;45147;-62
2022/05/18 15:45:10;;;;;;;2.33;0.90;;;18.10;49.90;20.10;94262.00;;;;10427274;28;45945;-62
2022/05/18 15:50:35;;;;;;;1.10;0.65;;;18.10;49.70;20.20;94258.00;;;;10412881;28;45432;-62
2022/05/18 15:56:03;;;;;;;1.55;0.80;;;18.10;49.80;20.20;94259.00;;;;10414174;28;45108;-62
2022/05/18 16:01:26;;;;;;;0.95;0.70;;;18.20;49.70;20.20;94249.00;;;;10435736;28;45901;-62
2022/05/18 16:06:47;;;;;;;1.35;0.75;;;18.20;49.60;20.30;94262.00;;;;10435995;28;45700;-62
2022/05/18 16:12:11;;;;;;;1.65;0.70;;;18.20;49.50;20.30;94248.00;;;;10436670;28;45528;-62
2022/05/18 16:17:33;;;;;;;0.98;0.70;;;18.30;49.80;20.30;94253.00;;;;10406524;28;45555;-62
2022/05/18 16:22:55;;;;;;;1.42;0.70;;;18.30;49.40;20.40;94237.00;;;;10394238;28;45935;-62
2022/05/18 16:28:21;;;;;;;1.55;0.80;;;18.30;49.30;20.40;94252.00;;;;10394182;28;45150;-62
2022/05/18 16:33:42;;;;;;;1.40;0.70;;;18.40;49.30;20.40;94250.00;;;;10394487;28;45193;-62
2022/05/18 16:39:03;;;;;;;1.00;0.63;;;18.40;49.10;20.40;94248.00;;;;10399381;28;46079;-63
2022/05/18 16:44:29;;;;;;;0.82;0.68;;;18.40;49.00;20.40;94240.00;;;;10419143;28;45104;-62
2022/05/18 16:49:50;;;;;;;0.70;0.60;;;18.40;48.90;20.50;94253.00;;;;10435014;28;45865;-62
2022/05/18 16:55:13;;;;;;;0.90;0.60;;;18.40;48.60;20.50;94260.00;;;;10441965;28;45168;-62
2022/05/18 17:00:35;;;;;;;1.58;0.80;;;18.50;48.70;20.50;94257.00;;;;10441670;28;45158;-62
2022/05/18 17:06:00;;;;;;;0.88;0.70;;;18.50;48.80;20.50;94257.00;;;;10436391;28;45206;-63
2022/05/18 17:11:27;;;;;;;1.67;0.80;;;18.50;48.70;20.50;94263.00;;;;10398791;22;45175;-62
2022/05/18 17:16:54;;;;;;;1.70;0.93;;;18.40;48.60;20.50;94258.00;;;;10357457;28;45911;-62
2022/05/18 17:22:15;;;;;;;1.08;0.77;;;18.50;48.50;20.40;94259.00;;;;10392043;28;45221;-62
2022/05/18 17:27:35;;;;;;;1.33;0.73;;;18.40;48.50;20.40;94266.00;;;;10394148;28;45225;-62
2022/05/18 17:32:59;;;;;;;0.93;0.60;;;18.40;48.40;20.40;94271.00;;;;10398735;28;45296;-62
2022/05/18 17:38:20;;;;;;;1.88;0.70;;;18.40;48.40;20.40;94261.00;;;;10404739;28;45786;-62
2022/05/18 17:43:40;;;;;;;0.85;0.75;;;18.40;48.40;20.40;94273.00;;;;10398048;28;45437;-61
2022/05/18 17:49:04;;;;;;;0.85;0.63;;;18.40;48.40;20.40;94261.00;;;;10360058;28;45866;-62
2022/05/18 17:54:25;;;;;;;1.05;0.70;;;18.30;48.40;20.30;94276.00;;;;10386335;28;45308;-62
2022/05/18 17:59:45;;;;;;;0.68;0.60;;;18.30;48.40;20.30;94278.00;;;;10412096;28;45757;-63
2022/05/18 18:05:10;;;;;;;0.70;0.60;;;18.30;48.50;20.30;94266.00;;;;10438201;28;45848;-62
2022/05/18 18:10:32;;;;;;;1.20;0.60;;;18.30;48.50;20.30;94275.00;;;;10424687;28;45782;-62
2022/05/18 18:15:53;;;;;;;0.88;0.60;;;18.20;48.50;20.20;94275.00;;;;10364439;28;45185;-63
2022/05/18 18:21:15;;;;;;;0.90;0.57;;;18.20;48.60;20.20;94272.00;;;;10390410;28;45720;-63
2022/05/18 18:26:39;;;;;;;0.95;0.68;;;18.20;48.60;20.20;94281.00;;;;10356219;28;45222;-63
2022/05/18 18:31:59;;;;;;;1.10;0.70;;;18.20;48.60;20.20;94280.00;;;;10355962;28;45212;-63
2022/05/18 18:37:22;;;;;;;1.25;0.73;;;18.10;48.70;20.20;94281.00;;;;10394738;28;45857;-63
2022/05/18 18:42:43;;;;;;;0.65;0.50;;;18.10;48.80;20.20;94275.00;;;;10379504;28;45145;-63
2022/05/18 18:48:04;;;;;;;0.82;0.57;;;18.10;48.80;20.10;94277.00;;;;10419724;28;45436;-63
2022/05/18 18:59:05;;;;;;;0.73;0.60;;;18.10;48.80;20.10;94276.00;;;;10412824;28;45170;-63
2022/05/18 19:04:26;;;;;;;1.02;0.60;;;18.00;48.80;20.10;94282.00;;;;10431592;28;45185;-63
2022/05/18 19:09:52;;;;;;;0.80;0.50;;;18.00;48.90;20.10;94268.00;;;;10418984;28;45871;-63
2022/05/18 19:15:17;;;;;;;0.45;0.45;;;18.00;48.90;20.00;94278.00;;;;10411753;28;45480;-63
2022/05/18 19:20:43;;;;;;;0.80;0.50;;;18.00;48.90;20.00;94284.00;;;;10395452;28;45295;-63
2022/05/18 19:26:06;;;;;;;1.00;0.60;;;18.00;49.00;20.00;94302.00;;;;10394079;28;45176;-62
2022/05/18 19:31:27;;;;;;;0.75;0.60;;;17.90;48.90;20.00;94305.00;;;;10377417;28;45676;-63
2022/05/18 19:36:47;;;;;;;0.77;0.50;;;17.90;48.90;20.00;94299.00;;;;10392474;28;45771;-62
2022/05/18 19:42:13;;;;;;;0.57;0.50;;;17.90;49.00;20.00;94310.00;;;;10401367;28;46317;-63
2022/05/18 19:47:34;;;;;;;0.70;0.50;;;17.90;49.00;20.00;94301.00;;;;10353516;28;45701;-63
2022/05/18 19:52:56;;;;;;;0.32;0.30;;;17.90;49.10;20.00;94314.00;;;;10354082;28;45700;-63
2022/05/18 19:58:24;;;;;;;0.95;0.50;;;17.90;49.10;19.90;94318.00;;;;10407865;28;45255;-62
2022/05/18 20:03:45;;;;;;;0.70;0.50;;;17.90;49.10;19.90;94316.00;;;;10398612;28;45872;-62
2022/05/18 20:09:07;;;;;;;1.08;0.65;;;17.90;49.10;19.90;94320.00;;;;10411131;28;46123;-63
2022/05/18 20:14:29;;;;;;;1.10;0.60;;;17.90;49.10;19.90;94312.00;;;;10435959;28;45179;-63
2022/05/18 20:19:50;;;;;;;0.55;0.40;;;17.90;49.20;19.90;94316.00;;;;10435195;28;45184;-63
2022/05/18 20:25:11;;;;;;;0.60;0.50;;;17.80;49.10;19.90;94320.00;;;;10436962;28;45190;-63
2022/05/18 20:30:33;;;;;;;0.63;0.50;;;17.80;49.10;19.90;94314.00;;;;10442505;28;45151;-62
2022/05/18 20:35:54;;;;;;;0.77;0.50;;;17.80;49.20;19.90;94312.00;;;;10442695;28;45191;-63
2022/05/18 20:41:16;;;;;;;0.77;0.50;;;17.80;49.20;19.90;94317.00;;;;10441966;28;45147;-62
2022/05/18 20:46:38;;;;;;;0.52;0.50;;;17.80;49.20;19.80;94323.00;;;;10442348;28;45778;-63
2022/05/18 20:51:59;;;;;;;0.40;0.40;;;17.80;49.30;19.80;94329.00;;;;10441833;28;45700;-63
2022/05/18 20:57:22;;;;;;;0.95;0.47;;;17.80;49.30;19.80;94324.00;;;;10441661;28;45174;-63
2022/05/18 21:02:44;;;;;;;0.88;0.60;;;17.80;49.30;19.80;94335.00;;;;10440736;28;45159;-63
2022/05/18 21:08:06;;;;;;;0.70;0.57;;;17.80;49.30;19.80;94333.00;;;;10436098;28;45170;-62
2022/05/18 21:13:26;;;;;;;0.65;0.50;;;17.80;49.30;19.80;94348.00;;;;10441612;28;45770;-62
2022/05/18 21:18:48;;;;;;;0.45;0.43;;;17.80;49.30;19.80;94339.00;;;;10441344;28;45384;-62
2022/05/18 21:24:10;;;;;;;0.93;0.52;;;17.70;49.30;19.80;94337.00;;;;10440941;28;45195;-62
2022/05/18 21:29:30;;;;;;;0.60;0.60;;;17.70;49.30;19.80;94341.00;;;;10440880;28;45219;-62
2022/05/18 21:34:52;;;;;;;0.60;0.40;;;17.70;49.40;19.80;94340.00;;;;10440852;28;45242;-62
2022/05/18 21:40:14;;;;;;;0.80;0.60;;;17.70;49.40;19.80;94346.00;;;;10440569;28;45091;-62
2022/05/18 21:45:35;;;;;;;0.50;0.50;;;17.70;49.40;19.80;94340.00;;;;10440411;28;45858;-62
2022/05/18 21:50:57;;;;;;;0.77;0.60;;;17.70;49.40;19.80;94337.00;;;;10440332;28;45995;-62
2022/05/18 21:56:25;;;;;;;0.82;0.45;;;17.70;49.40;19.80;94353.00;;;;10440363;28;45116;-62
2022/05/18 22:01:46;;;;;;;0.80;0.43;;;17.70;49.40;19.80;94345.00;;;;10439898;28;45110;-62
2022/05/18 22:07:09;;;;;;;0.98;0.50;;;17.70;49.40;19.70;94336.00;;;;10439750;28;45766;-62
2022/05/18 22:12:30;;;;;;;0.88;0.50;;;17.70;49.40;19.80;94348.00;;;;10439166;28;45772;-62
2022/05/18 22:17:50;;;;;;;0.70;0.50;;;17.60;49.40;19.70;94344.00;;;;10439126;28;45212;-62
2022/05/18 22:23:13;;;;;;;0.63;0.40;;;17.70;49.40;19.70;94346.00;;;;10439534;28;45175;-62
2022/05/18 22:28:36;;;;;;;0.60;0.50;;;17.70;49.50;19.70;94346.00;;;;10438909;28;45139;-62
2022/05/18 22:33:56;;;;;;;0.40;0.40;;;17.60;49.40;19.70;94344.00;;;;10439072;28;45176;-62
2022/05/18 22:39:18;;;;;;;0.73;0.45;;;17.70;49.50;19.70;94347.00;;;;10438350;28;45791;-62
2022/05/18 22:44:42;;;;;;;0.47;0.40;;;17.60;49.40;19.70;94347.00;;;;10438931;28;45200;-62
2022/05/18 22:50:08;;;;;;;0.50;0.50;;;17.60;49.50;19.70;94327.00;;;;10437611;28;45688;-62
2022/05/18 22:55:31;;;;;;;0.60;0.40;;;17.60;49.50;19.70;94343.00;;;;10438311;28;45208;-62
2022/05/18 23:00:55;;;;;;;0.57;0.40;;;17.60;49.50;19.70;94341.00;;;;10438355;28;45432;-62
2022/05/18 23:06:15;;;;;;;0.43;0.40;;;17.60;49.50;19.70;94336.00;;;;10437833;28;45182;-63
2022/05/18 23:11:37;;;;;;;0.50;0.50;;;17.60;49.50;19.70;94329.00;;;;10399204;22;46303;-60
2022/05/18 23:16:58;;;;;;;0.40;0.32;;;17.60;49.50;19.70;94340.00;;;;10354453;28;45225;-60
2022/05/18 23:22:20;;;;;;;0.40;0.40;;;17.60;49.50;19.70;94324.00;;;;10390593;28;45759;-60
2022/05/18 23:27:42;;;;;;;0.68;0.50;;;17.60;49.50;19.70;94333.00;;;;10394808;28;45234;-60
2022/05/18 23:33:02;;;;;;;0.77;0.50;;;17.60;49.50;19.70;94336.00;;;;10395699;28;45137;-60
2022/05/18 23:38:23;;;;;;;0.30;0.30;;;17.60;49.50;19.70;94334.00;;;;10395493;28;45122;-60
2022/05/18 23:43:46;;;;;;;0.60;0.40;;;17.60;49.50;19.70;94327.00;;;;10395412;28;45189;-60
2022/05/18 23:49:11;;;;;;;0.47;0.40;;;17.60;49.50;19.60;94329.00;;;;10395086;28;45294;-60
2022/05/18 23:54:32;;;;;;;0.80;0.50;;;17.60;49.50;19.60;94325.00;;;;10395278;28;45144;-60
2022/05/18 23:59:58;;;;;;;0.70;0.50;;;17.60;49.60;19.60;94312.00;;;;10395618;28;45172;-60
